Time;durP1;ratioP1;P1;durP2;ratioP2;P2;SDS_P1;SDS_P2;PMS_P1;PMS_P2;Temp;Humidity;BMP_temperature;BMP_pressure;BME280_temperature;BME280_humidity;BME280_pressure;Samples;Min_cycle;Max_cycle;Signal;HPM_P1;HPM_P2
2023/07/28 00:00:02;;;;;;;15.30;14.70;;;19.10;99.90;;;;;;5071480;28;20462;-82
2023/07/28 00:02:30;;;;;;;15.50;15.00;;;19.00;99.90;;;;;;5109229;22;20494;-83
2023/07/28 00:05:04;;;;;;;15.20;14.70;;;19.00;99.90;;;;;;5060578;28;20467;-84
2023/07/28 00:07:35;;;;;;;15.40;14.70;;;19.00;99.90;;;;;;5061516;28;20476;-84
2023/07/28 00:10:19;;;;;;;15.43;14.80;;;19.10;99.90;;;;;;5059157;28;20458;-86
2023/07/28 00:12:47;;;;;;;15.57;14.97;;;19.00;99.90;;;;;;5062483;28;20486;-84
2023/07/28 00:15:48;;;;;;;15.67;15.17;;;19.00;99.90;;;;;;5063154;28;20479;-84
2023/07/28 00:18:18;;;;;;;15.93;15.43;;;19.00;99.90;;;;;;5064781;28;21039;-84
2023/07/28 00:20:46;;;;;;;16.20;15.60;;;18.90;99.90;;;;;;5062340;28;20458;-84
2023/07/28 00:23:14;;;;;;;16.03;15.40;;;18.90;99.90;;;;;;5041338;28;20460;-85
2023/07/28 00:25:44;;;;;;;16.27;15.57;;;18.90;99.90;;;;;;5061917;28;20960;-85
2023/07/28 00:28:13;;;;;;;16.20;15.60;;;18.90;99.90;;;;;;5061937;28;20478;-85
2023/07/28 00:30:42;;;;;;;15.90;15.30;;;18.90;99.90;;;;;;5061990;28;20446;-82
2023/07/28 00:33:20;;;;;;;16.00;15.50;;;18.90;99.90;;;;;;5064154;28;20565;-84
2023/07/28 00:35:50;;;;;;;16.60;16.00;;;18.90;99.90;;;;;;5067337;28;20534;-84
2023/07/28 00:38:18;;;;;;;15.90;15.40;;;18.90;99.90;;;;;;5058136;28;20485;-86
2023/07/28 00:40:48;;;;;;;18.03;15.67;;;18.70;99.90;;;;;;5061367;28;21107;-85
2023/07/28 00:43:19;;;;;;;16.40;15.80;;;18.60;99.90;;;;;;5059094;28;20641;-85
2023/07/28 00:45:50;;;;;;;16.20;15.63;;;18.50;1.00;;;;;;5060685;28;20975;-87
2023/07/28 00:48:20;;;;;;;16.17;15.37;;;18.50;1.00;;;;;;5056678;28;21018;-86
2023/07/28 00:50:49;;;;;;;15.83;15.10;;;18.40;1.00;;;;;;5039659;28;20466;-88
2023/07/28 00:53:18;;;;;;;15.67;15.17;;;18.30;21.80;;;;;;5057659;28;20452;-87
2023/07/28 00:55:49;;;;;;;15.50;15.00;;;18.30;99.90;;;;;;5056514;28;20448;-87
2023/07/28 00:58:17;;;;;;;15.90;15.40;;;18.30;99.90;;;;;;5057902;28;20450;-87
2023/07/28 01:00:45;;;;;;;15.50;14.83;;;18.30;97.20;;;;;;5056068;28;20463;-88
2023/07/28 01:03:14;;;;;;;15.40;14.90;;;18.30;73.30;;;;;;5042201;28;20459;-87
2023/07/28 01:05:56;;;;;;;15.00;14.50;;;18.10;52.20;;;;;;5056282;28;20625;-87
2023/07/28 01:08:31;;;;;;;15.93;15.43;;;18.10;99.90;;;;;;5053369;28;20933;-88
2023/07/28 01:11:01;;;;;;;15.40;14.90;;;18.20;99.90;;;;;;5056907;28;20478;-89
2023/07/28 01:13:29;;;;;;;15.00;14.60;;;18.20;99.90;;;;;;5058260;28;20450;-88
2023/07/28 01:15:58;;;;;;;15.97;15.47;;;18.20;1.00;;;;;;5043188;28;20454;-88
2023/07/28 01:18:26;;;;;;;15.87;15.37;;;18.30;99.90;;;;;;5044274;28;20509;-89
2023/07/28 01:20:57;;;;;;;15.90;15.40;;;18.40;99.90;;;;;;5041410;28;20562;-87
2023/07/28 01:23:38;;;;;;;15.40;14.90;;;18.40;99.90;;;;;;5064172;28;20460;-88
2023/07/28 01:26:10;;;;;;;15.97;15.40;;;18.40;99.90;;;;;;5056908;28;20571;-88
2023/07/28 01:28:42;;;;;;;15.57;14.87;;;18.30;99.90;;;;;;5057365;28;20454;-88
2023/07/28 01:31:10;;;;;;;15.63;15.13;;;18.30;99.90;;;;;;5059119;28;20484;-88
2023/07/28 01:33:38;;;;;;;15.50;15.00;;;18.30;99.90;;;;;;5053986;28;20840;-88
2023/07/28 01:36:07;;;;;;;15.97;15.30;;;18.40;99.90;;;;;;5056352;28;20548;-86
2023/07/28 01:38:35;;;;;;;16.00;15.50;;;18.30;29.60;;;;;;5037321;28;20514;-86
2023/07/28 01:41:03;;;;;;;15.80;15.30;;;18.20;99.90;;;;;;5058534;28;20899;-86
2023/07/28 01:43:31;;;;;;;15.80;15.30;;;18.10;99.90;;;;;;5057975;28;20466;-88
2023/07/28 01:46:01;;;;;;;16.17;15.50;;;18.00;99.90;;;;;;5055553;28;20541;-85
2023/07/28 01:48:29;;;;;;;16.07;15.37;;;18.00;99.90;;;;;;5055883;28;20486;-86
2023/07/28 01:50:58;;;;;;;16.47;15.80;;;18.00;99.90;;;;;;5053048;28;20554;-85
2023/07/28 01:53:26;;;;;;;15.43;14.83;;;18.10;1.00;;;;;;5054704;28;20460;-86
2023/07/28 01:55:54;;;;;;;16.60;15.57;;;18.10;1.00;;;;;;5054728;28;20460;-86
2023/07/28 01:58:22;;;;;;;16.00;15.40;;;18.00;99.90;;;;;;5054627;28;20651;-86
2023/07/28 02:00:50;;;;;;;15.53;15.00;;;18.00;1.00;;;;;;5055815;28;20546;-86
2023/07/28 02:03:20;;;;;;;15.33;14.83;;;18.20;1.00;;;;;;5036366;28;21833;-87
2023/07/28 02:05:48;;;;;;;15.50;15.00;;;18.10;99.90;;;;;;5058044;28;20462;-85
2023/07/28 02:08:16;;;;;;;15.20;14.70;;;18.10;99.90;;;;;;5043212;28;20936;-86
2023/07/28 02:10:45;;;;;;;15.37;14.87;;;18.00;99.90;;;;;;5056441;28;20456;-85
2023/07/28 02:13:14;;;;;;;15.70;15.20;;;18.00;1.00;;;;;;5056767;28;20454;-86
2023/07/28 02:15:42;;;;;;;15.87;15.33;;;17.90;1.00;;;;;;5056056;28;20466;-86
2023/07/28 02:18:10;;;;;;;15.97;15.30;;;17.80;1.00;;;;;;5057542;28;20453;-88
2023/07/28 02:20:40;;;;;;;15.63;15.20;;;17.80;1.00;;;;;;5058486;28;20451;-86
2023/07/28 02:23:08;;;;;;;16.27;15.67;;;17.80;1.00;;;;;;5038638;28;20489;-87
2023/07/28 02:25:37;;;;;;;16.10;15.60;;;17.80;1.00;;;;;;5057928;28;20452;-87
2023/07/28 02:28:05;;;;;;;16.33;15.73;;;17.90;1.00;;;;;;5057984;28;20507;-86
2023/07/28 02:30:33;;;;;;;15.50;15.00;;;17.80;3.50;;;;;;5052090;28;20549;-85
2023/07/28 02:33:01;;;;;;;15.67;15.17;;;18.00;99.90;;;;;;5056435;28;20463;-85
2023/07/28 02:35:31;;;;;;;16.13;15.43;;;18.00;1.00;;;;;;5056291;28;20452;-86
2023/07/28 02:38:01;;;;;;;16.40;15.70;;;18.00;99.70;;;;;;5056524;28;21338;-85
2023/07/28 02:40:29;;;;;;;15.80;15.30;;;18.10;1.00;;;;;;5057083;28;20870;-86
2023/07/28 02:42:58;;;;;;;15.87;15.17;;;18.10;1.00;;;;;;5057158;28;20499;-86
2023/07/28 02:45:26;;;;;;;15.73;15.23;;;18.10;99.90;;;;;;5059313;28;20540;-87
2023/07/28 02:47:54;;;;;;;15.90;15.30;;;18.00;1.00;;;;;;5059451;28;20489;-86
2023/07/28 02:50:23;;;;;;;15.57;15.07;;;18.00;1.00;;;;;;5059206;28;20588;-86
2023/07/28 02:52:51;;;;;;;15.67;15.07;;;18.00;1.00;;;;;;5060891;28;20479;-85
2023/07/28 02:55:20;;;;;;;15.50;15.00;;;18.00;1.00;;;;;;5058840;28;20495;-86
2023/07/28 02:57:49;;;;;;;15.23;14.83;;;17.80;96.90;;;;;;5057370;28;20558;-86
2023/07/28 03:00:16;;;;;;;15.60;15.10;;;17.80;99.90;;;;;;5057951;28;20990;-86
2023/07/28 03:02:44;;;;;;;15.50;15.00;;;17.80;99.90;;;;;;5056791;28;20813;-87
2023/07/28 03:05:13;;;;;;;15.50;15.00;;;17.90;99.90;;;;;;5057489;28;20463;-88
2023/07/28 03:07:41;;;;;;;15.97;14.97;;;18.00;99.90;;;;;;5059405;28;20998;-88
2023/07/28 03:10:16;;;;;;;15.37;14.87;;;18.00;99.90;;;;;;5060790;28;20573;-86
2023/07/28 03:12:45;;;;;;;15.67;15.03;;;18.00;99.90;;;;;;5040805;28;20475;-86
2023/07/28 03:15:14;;;;;;;16.13;15.40;;;17.90;45.90;;;;;;5057405;28;20818;-86
2023/07/28 03:17:42;;;;;;;15.57;15.03;;;17.90;99.90;;;;;;5059624;28;20466;-86
2023/07/28 03:20:11;;;;;;;15.50;15.00;;;17.80;99.90;;;;;;5057158;28;20466;-85
2023/07/28 03:22:39;;;;;;;15.60;15.10;;;17.90;1.00;;;;;;5058838;28;20922;-86
2023/07/28 03:25:08;;;;;;;15.90;15.40;;;18.00;99.90;;;;;;5060834;28;20471;-85
2023/07/28 03:27:37;;;;;;;15.57;15.07;;;18.00;99.90;;;;;;5060026;28;20500;-85
2023/07/28 03:30:10;;;;;;;16.23;15.63;;;18.10;99.90;;;;;;5045714;28;20577;-85
2023/07/28 03:32:39;;;;;;;16.30;15.60;;;18.20;99.90;;;;;;5061163;28;20561;-85
2023/07/28 03:35:08;;;;;;;16.03;15.53;;;18.10;99.90;;;;;;5058381;28;20473;-84
2023/07/28 03:37:37;;;;;;;16.37;15.60;;;18.10;99.90;;;;;;5042563;28;20458;-84
2023/07/28 03:40:06;;;;;;;16.40;15.87;;;18.10;99.90;;;;;;5063405;28;20451;-85
2023/07/28 03:42:35;;;;;;;15.90;15.40;;;18.10;99.90;;;;;;5058551;28;21062;-83
2023/07/28 03:45:03;;;;;;;16.90;16.20;;;18.10;99.90;;;;;;5041042;28;20498;-85
2023/07/28 03:47:33;;;;;;;16.43;15.83;;;18.10;99.90;;;;;;5045758;28;20454;-86
2023/07/28 03:50:01;;;;;;;16.50;15.90;;;18.20;99.90;;;;;;5061707;28;20808;-86
2023/07/28 03:52:29;;;;;;;15.97;15.37;;;18.10;99.90;;;;;;5046255;28;20494;-87
2023/07/28 03:54:58;;;;;;;16.30;15.70;;;18.10;99.90;;;;;;5059151;28;20450;-86
2023/07/28 03:57:26;;;;;;;16.00;15.50;;;18.10;99.90;;;;;;5058804;28;20550;-88
2023/07/28 03:59:54;;;;;;;16.20;15.70;;;18.10;99.90;;;;;;5060305;28;20491;-88
2023/07/28 04:02:23;;;;;;;16.70;16.10;;;18.10;99.90;;;;;;5050377;28;20499;-87
2023/07/28 04:04:56;;;;;;;16.50;16.00;;;18.10;1.00;;;;;;5056372;28;20532;-87
2023/07/28 04:07:24;;;;;;;15.87;15.37;;;18.20;99.90;;;;;;5058817;28;20838;-86
2023/07/28 04:09:52;;;;;;;16.10;15.50;;;18.20;99.90;;;;;;5061826;28;20575;-86
2023/07/28 04:12:21;;;;;;;16.10;15.30;;;18.20;99.90;;;;;;5061394;28;20466;-85
2023/07/28 04:14:49;;;;;;;15.63;15.07;;;18.10;99.90;;;;;;5058783;28;20562;-87
2023/07/28 04:17:17;;;;;;;16.60;15.90;;;18.00;99.90;;;;;;5062304;28;20490;-87
2023/07/28 04:19:46;;;;;;;15.73;15.13;;;18.00;99.90;;;;;;5058432;28;20459;-85
2023/07/28 04:22:21;;;;;;;15.90;15.40;;;18.00;1.00;;;;;;5055370;28;20491;-86
2023/07/28 04:24:49;;;;;;;16.50;15.80;;;17.90;99.90;;;;;;5061049;28;21250;-86
2023/07/28 04:27:17;;;;;;;16.40;15.70;;;17.90;1.00;;;;;;5060166;28;20449;-85
2023/07/28 04:29:46;;;;;;;16.60;16.00;;;18.00;1.00;;;;;;5062527;28;20475;-86
2023/07/28 04:32:14;;;;;;;16.43;15.83;;;18.00;1.00;;;;;;5061352;28;20571;-85
2023/07/28 04:34:42;;;;;;;16.73;16.13;;;18.00;1.00;;;;;;5063827;28;20959;-85
2023/07/28 04:37:10;;;;;;;16.43;15.83;;;18.00;1.00;;;;;;5059260;28;20520;-84
2023/07/28 04:39:40;;;;;;;16.27;15.67;;;18.00;1.00;;;;;;5061643;28;20876;-85
2023/07/28 04:42:09;;;;;;;16.20;15.60;;;18.10;1.00;;;;;;5059569;28;20532;-84
2023/07/28 04:44:38;;;;;;;16.60;15.90;;;18.10;99.90;;;;;;5061572;28;20455;-83
2023/07/28 04:47:07;;;;;;;17.30;16.60;;;18.10;99.90;;;;;;5058655;28;20467;-84
2023/07/28 04:49:35;;;;;;;16.70;16.10;;;18.20;99.90;;;;;;5062281;28;20475;-84
2023/07/28 04:52:03;;;;;;;15.63;15.13;;;18.20;99.90;;;;;;5039305;28;20586;-85
2023/07/28 04:54:31;;;;;;;16.70;15.90;;;18.20;99.90;;;;;;5060047;28;20775;-85
2023/07/28 04:57:04;;;;;;;15.83;15.33;;;18.20;99.90;;;;;;5060206;28;20462;-85
2023/07/28 04:59:39;;;;;;;15.90;15.40;;;18.20;36.60;;;;;;5057741;28;20454;-85
2023/07/28 05:02:07;;;;;;;16.43;15.83;;;18.20;1.00;;;;;;5058412;28;20954;-85
2023/07/28 05:04:36;;;;;;;16.20;15.60;;;18.20;99.90;;;;;;5058690;28;20923;-83
2023/07/28 05:07:05;;;;;;;15.97;15.37;;;18.20;1.00;;;;;;5058982;28;20451;-88
2023/07/28 05:09:34;;;;;;;17.20;16.60;;;18.20;99.90;;;;;;5060462;28;20469;-84
2023/07/28 05:12:04;;;;;;;16.37;15.63;;;18.20;99.90;;;;;;5061305;28;20546;-84
2023/07/28 05:14:32;;;;;;;16.53;15.90;;;18.20;99.90;;;;;;5058651;28;20844;-85
2023/07/28 05:17:00;;;;;;;16.40;15.80;;;18.20;1.00;;;;;;5058720;28;20455;-84
2023/07/28 05:19:28;;;;;;;15.87;15.37;;;18.30;99.90;;;;;;5060644;28;20837;-83
2023/07/28 05:21:57;;;;;;;16.00;15.50;;;18.30;99.90;;;;;;5059171;28;20470;-85
2023/07/28 05:24:25;;;;;;;17.23;16.53;;;18.20;99.90;;;;;;5052654;28;20533;-88
2023/07/28 05:26:53;;;;;;;16.90;16.20;;;18.20;1.00;;;;;;5059241;28;20561;-85
2023/07/28 05:29:23;;;;;;;16.40;15.90;;;18.30;1.00;;;;;;5060451;28;20478;-87
2023/07/28 05:31:51;;;;;;;17.47;16.67;;;18.20;36.50;;;;;;5040545;28;20848;-84
2023/07/28 05:34:19;;;;;;;16.43;15.83;;;18.20;99.90;;;;;;5057726;28;20438;-86
2023/07/28 05:36:47;;;;;;;17.03;16.30;;;18.20;1.00;;;;;;5059488;28;20466;-86
2023/07/28 05:39:16;;;;;;;17.13;16.47;;;18.30;99.90;;;;;;5052419;28;20554;-85
2023/07/28 05:41:47;;;;;;;16.70;16.10;;;18.20;1.00;;;;;;5056889;28;20537;-84
2023/07/28 05:44:15;;;;;;;17.63;16.47;;;18.30;1.00;;;;;;5057915;28;20522;-85
2023/07/28 05:46:54;;;;;;;17.60;16.77;;;18.20;99.90;;;;;;5060062;28;21205;-84
2023/07/28 05:49:23;;;;;;;16.60;16.00;;;18.30;1.00;;;;;;5059910;28;20530;-86
2023/07/28 05:51:51;;;;;;;17.80;16.87;;;18.30;99.90;;;;;;5059068;28;20470;-83
2023/07/28 05:54:19;;;;;;;18.03;17.13;;;18.30;99.90;;;;;;5062228;28;20458;-85
2023/07/28 05:57:06;;;;;;;17.10;16.30;;;18.30;99.90;;;;;;5054206;28;20466;-87
2023/07/28 05:59:38;;;;;;;17.00;16.40;;;18.30;99.90;;;;;;5060617;28;20455;-90
2023/07/28 06:02:10;;;;;;;17.67;16.83;;;18.30;99.90;;;;;;5058467;28;20483;-89
2023/07/28 06:04:38;;;;;;;17.40;16.60;;;18.30;99.90;;;;;;5061075;28;20455;-89
2023/07/28 06:07:07;;;;;;;17.40;16.70;;;18.30;99.90;;;;;;5056261;28;20512;-88
2023/07/28 06:09:35;;;;;;;17.43;16.70;;;18.30;1.00;;;;;;5061628;28;20506;-88
2023/07/28 06:12:05;;;;;;;17.33;16.73;;;18.30;1.00;;;;;;5061262;28;20573;-88
2023/07/28 06:14:48;;;;;;;17.77;17.10;;;18.30;1.00;;;;;;5057877;28;20455;-88
2023/07/28 06:17:19;;;;;;;16.60;16.00;;;18.40;1.00;;;;;;5061723;28;20458;-89
2023/07/28 06:19:47;;;;;;;17.37;16.67;;;18.40;1.00;;;;;;5058705;28;20542;-89
2023/07/28 06:22:16;;;;;;;18.23;17.30;;;18.40;1.00;;;;;;5042552;28;20479;-88
2023/07/28 06:24:44;;;;;;;18.20;17.20;;;18.40;1.00;;;;;;5059642;28;20459;-89
2023/07/28 06:27:12;;;;;;;18.80;17.73;;;18.40;1.00;;;;;;5062043;28;20455;-88
2023/07/28 06:29:41;;;;;;;17.87;17.10;;;18.40;1.00;;;;;;5056943;28;20505;-88
2023/07/28 06:32:16;;;;;;;18.50;17.60;;;18.50;1.00;;;;;;5045522;28;20603;-87
2023/07/28 06:34:46;;;;;;;18.00;17.30;;;18.50;1.00;;;;;;5058679;28;20955;-87
2023/07/28 06:37:18;;;;;;;18.77;17.97;;;18.50;1.00;;;;;;5058126;28;21434;-87
2023/07/28 06:39:46;;;;;;;18.70;17.90;;;18.50;1.00;;;;;;5057679;28;20454;-88
2023/07/28 06:42:16;;;;;;;17.80;17.00;;;18.40;99.90;;;;;;5059354;28;20486;-86
2023/07/28 06:44:47;;;;;;;18.97;17.97;;;18.50;99.90;;;;;;5059782;28;20470;-86
2023/07/28 06:47:56;;;;;;;18.80;17.80;;;18.50;99.90;;;;;;5057188;28;20454;-87
2023/07/28 06:50:45;;;;;;;18.60;17.73;;;18.50;99.90;;;;;;5063965;28;20515;-87
2023/07/28 06:53:17;;;;;;;18.40;17.70;;;18.50;99.90;;;;;;5063061;28;20474;-88
2023/07/28 06:59:11;;;;;;;19.13;18.10;;;18.60;99.90;;;;;;5050759;28;20559;-87
2023/07/28 07:01:46;;;;;;;18.53;17.73;;;18.70;1.00;;;;;;5057398;28;20534;-87
2023/07/28 07:04:17;;;;;;;18.90;18.00;;;18.70;1.00;;;;;;5043847;28;20508;-86
2023/07/28 07:06:50;;;;;;;17.87;17.10;;;18.70;99.90;;;;;;5046550;28;20450;-83
2023/07/28 07:09:18;;;;;;;18.13;17.30;;;18.80;99.90;;;;;;5063337;28;20471;-83
2023/07/28 07:11:48;;;;;;;18.47;17.67;;;18.80;99.90;;;;;;5059652;28;20526;-83
2023/07/28 07:18:55;;;;;;;18.10;17.30;;;18.90;99.90;;;;;;5066486;28;20430;-82
2023/07/28 07:21:26;;;;;;;17.73;17.00;;;18.90;99.90;;;;;;5063071;28;20716;-83
2023/07/28 07:23:58;;;;;;;19.80;18.80;;;18.90;99.90;;;;;;5062311;28;20455;-81
2023/07/28 07:26:30;;;;;;;18.30;17.50;;;18.90;99.90;;;;;;5066317;28;20455;-83
2023/07/28 07:29:01;;;;;;;18.50;17.60;;;19.00;99.90;;;;;;5065997;28;20500;-83
2023/07/28 07:31:30;;;;;;;17.60;16.90;;;19.00;99.90;;;;;;5196177;22;20512;-82
2023/07/28 07:33:59;;;;;;;17.67;16.90;;;19.00;99.90;;;;;;5074613;28;20481;-82
2023/07/28 07:36:28;;;;;;;17.27;16.57;;;19.00;1.00;;;;;;5076904;28;20461;-81
2023/07/28 07:39:01;;;;;;;17.67;16.97;;;19.10;99.90;;;;;;5082789;28;20820;-81
2023/07/28 07:41:30;;;;;;;17.90;17.10;;;19.10;4.00;;;;;;5238571;22;20519;-82
2023/07/28 07:48:13;;;;;;;17.60;16.90;;;19.10;1.00;;;;;;4969762;28;20946;-81
2023/07/28 07:50:41;;;;;;;17.00;16.40;;;19.10;99.90;;;;;;5045107;28;20885;-81
2023/07/28 07:53:09;;;;;;;16.97;16.37;;;19.10;1.00;;;;;;5043730;28;20493;-82
2023/07/28 07:55:42;;;;;;;17.73;16.97;;;19.20;1.00;;;;;;5046451;28;20965;-82
2023/07/28 07:58:15;;;;;;;17.13;16.43;;;19.20;3.10;;;;;;5050447;28;20924;-84
2023/07/28 08:00:43;;;;;;;17.20;16.50;;;19.20;93.50;;;;;;5050107;28;20450;-84
2023/07/28 08:03:12;;;;;;;17.00;16.27;;;19.30;99.90;;;;;;5047225;28;20470;-83
2023/07/28 08:05:40;;;;;;;17.47;16.50;;;19.30;7.20;;;;;;5048125;28;20985;-82
2023/07/28 08:08:12;;;;;;;17.00;16.30;;;19.30;1.00;;;;;;5047949;28;20455;-83
2023/07/28 08:13:25;;;;;;;16.90;16.00;;;19.40;77.90;;;;;;5047122;28;21296;-80
2023/07/28 08:15:53;;;;;;;17.07;16.37;;;19.50;7.70;;;;;;5047174;28;20893;-81
2023/07/28 08:18:22;;;;;;;16.97;16.10;;;19.50;1.00;;;;;;5047976;28;20485;-84
2023/07/28 08:20:51;;;;;;;16.63;16.07;;;19.60;99.90;;;;;;5047312;28;20455;-85
2023/07/28 08:23:19;;;;;;;17.53;16.70;;;19.60;99.90;;;;;;5045914;28;20486;-82
2023/07/28 08:25:49;;;;;;;16.77;16.17;;;19.70;99.90;;;;;;5046286;28;21010;-82
2023/07/28 08:28:17;;;;;;;16.70;16.10;;;19.80;1.00;;;;;;5044732;28;20455;-84
2023/07/28 08:30:46;;;;;;;17.47;16.67;;;19.90;99.90;;;;;;5040714;28;20546;-82
2023/07/28 08:33:15;;;;;;;16.93;16.23;;;19.90;99.90;;;;;;5044182;28;20502;-84
2023/07/28 08:35:43;;;;;;;17.00;16.40;;;20.00;99.90;;;;;;5037987;28;20455;-85
2023/07/28 08:38:12;;;;;;;17.00;16.40;;;20.00;1.00;;;;;;5043081;28;20451;-85
2023/07/28 08:40:40;;;;;;;17.27;16.63;;;20.00;99.90;;;;;;5060060;28;20875;-81
2023/07/28 08:43:10;;;;;;;17.40;16.70;;;20.00;99.90;;;;;;5040181;28;20462;-82
2023/07/28 08:45:39;;;;;;;17.00;16.40;;;20.00;1.00;;;;;;5044057;28;20460;-82
2023/07/28 08:48:08;;;;;;;18.20;17.50;;;20.20;99.90;;;;;;5044385;28;20479;-81
2023/07/28 08:50:36;;;;;;;17.53;16.83;;;20.30;99.90;;;;;;5046630;28;20448;-83
2023/07/28 08:53:05;;;;;;;18.03;17.13;;;20.40;99.90;;;;;;5043148;28;20511;-83
2023/07/28 08:55:33;;;;;;;18.07;17.37;;;20.40;1.00;;;;;;5042193;28;21003;-84
2023/07/28 08:58:16;;;;;;;17.17;16.57;;;20.40;99.90;;;;;;5046610;28;20452;-81
2023/07/28 09:00:46;;;;;;;17.67;17.07;;;20.50;99.90;;;;;;5045082;28;20976;-81
2023/07/28 09:03:15;;;;;;;17.70;17.10;;;20.50;98.60;;;;;;5042052;28;20474;-83
2023/07/28 09:05:45;;;;;;;17.37;16.73;;;20.50;2.50;;;;;;5044983;28;20459;-82
2023/07/28 09:08:14;;;;;;;17.17;16.63;;;20.50;1.00;;;;;;5047374;28;20460;-84
2023/07/28 09:10:42;;;;;;;17.17;16.57;;;20.50;1.00;;;;;;5041938;28;20456;-85
2023/07/28 09:13:12;;;;;;;17.60;16.90;;;20.50;1.00;;;;;;5065677;28;20482;-84
2023/07/28 09:15:46;;;;;;;16.60;16.00;;;20.50;1.00;;;;;;5065409;28;20450;-82
2023/07/28 09:18:17;;;;;;;17.43;16.77;;;20.50;1.00;;;;;;5065056;28;20458;-85
2023/07/28 09:20:45;;;;;;;16.97;16.30;;;20.50;1.00;;;;;;5068194;28;20450;-82
2023/07/28 09:23:16;;;;;;;17.40;16.80;;;20.50;1.00;;;;;;5065669;28;20459;-81
2023/07/28 09:25:44;;;;;;;16.77;16.17;;;20.50;1.00;;;;;;5066819;28;20451;-81
2023/07/28 09:28:13;;;;;;;17.37;16.70;;;20.40;99.90;;;;;;5063795;28;21101;-84
2023/07/28 09:30:49;;;;;;;17.60;16.90;;;20.40;99.90;;;;;;5062906;28;20472;-84
2023/07/28 09:33:31;;;;;;;16.70;16.10;;;20.50;99.90;;;;;;5062837;28;20478;-82
2023/07/28 09:36:11;;;;;;;17.03;16.43;;;20.40;99.90;;;;;;5045144;28;20455;-84
2023/07/28 09:38:42;;;;;;;16.50;15.90;;;20.40;99.90;;;;;;5046349;28;20894;-85
2023/07/28 09:41:22;;;;;;;16.93;16.33;;;20.50;99.90;;;;;;5070155;28;20974;-81
2023/07/28 09:44:19;;;;;;;16.80;16.27;;;20.50;99.90;;;;;;5069145;28;20438;-82
2023/07/28 09:47:21;;;;;;;17.07;16.47;;;20.50;99.90;;;;;;5068916;28;20486;-83
2023/07/28 09:49:51;;;;;;;17.60;16.93;;;20.60;99.90;;;;;;5054049;28;20893;-82
2023/07/28 09:52:23;;;;;;;17.47;16.83;;;20.60;82.70;;;;;;5046061;28;20515;-82
2023/07/28 09:54:59;;;;;;;16.97;16.47;;;20.60;28.00;;;;;;5068799;28;20500;-84
2023/07/28 09:57:33;;;;;;;17.50;16.90;;;20.60;8.50;;;;;;5067212;28;20563;-80
2023/07/28 10:00:05;;;;;;;16.83;16.23;;;20.70;1.00;;;;;;5069352;28;20455;-85
2023/07/28 10:02:42;;;;;;;17.70;16.57;;;20.70;1.00;;;;;;5071383;28;20470;-82
2023/07/28 10:05:11;;;;;;;16.93;16.43;;;20.70;1.00;;;;;;5053147;28;20550;-81
2023/07/28 10:07:42;;;;;;;17.30;16.50;;;20.70;1.00;;;;;;5066123;28;21011;-82
2023/07/28 10:10:17;;;;;;;16.90;16.30;;;20.70;1.00;;;;;;5069625;28;20925;-83
2023/07/28 10:12:51;;;;;;;17.30;16.70;;;20.80;1.00;;;;;;5069887;28;20474;-81
2023/07/28 10:15:31;;;;;;;18.00;17.07;;;20.80;1.00;;;;;;5065232;28;20494;-84
2023/07/28 10:18:05;;;;;;;17.20;16.60;;;20.90;1.00;;;;;;5069483;28;20459;-83
2023/07/28 10:20:38;;;;;;;17.37;16.77;;;20.90;1.00;;;;;;5070667;28;20450;-83
2023/07/28 10:23:13;;;;;;;17.20;16.60;;;20.90;1.00;;;;;;5044359;28;20454;-82
2023/07/28 10:25:44;;;;;;;17.20;16.70;;;20.90;1.00;;;;;;5068722;28;20467;-82
2023/07/28 10:28:38;;;;;;;16.60;16.07;;;20.90;1.00;;;;;;5067235;28;20503;-84
2023/07/28 10:31:07;;;;;;;17.50;16.60;;;20.90;1.00;;;;;;5066977;28;20486;-81
2023/07/28 10:33:38;;;;;;;17.17;16.53;;;21.10;1.00;;;;;;5069515;28;20535;-86
2023/07/28 10:36:15;;;;;;;17.50;16.90;;;21.20;1.00;;;;;;5068099;28;20590;-85
2023/07/28 10:38:44;;;;;;;17.03;16.43;;;21.20;1.00;;;;;;5068465;28;20459;-84
2023/07/28 10:41:15;;;;;;;16.90;16.30;;;21.20;1.00;;;;;;5071071;28;20472;-84
2023/07/28 10:43:45;;;;;;;16.70;16.20;;;21.30;1.00;;;;;;5062631;28;20454;-83
2023/07/28 10:46:16;;;;;;;17.30;16.60;;;21.30;1.00;;;;;;5069195;28;20450;-81
2023/07/28 10:48:48;;;;;;;19.10;18.10;;;21.30;1.00;;;;;;5067507;28;20459;-81
2023/07/28 10:51:23;;;;;;;19.63;18.13;;;21.30;8.60;;;;;;5070226;28;20541;-80
2023/07/28 10:53:55;;;;;;;17.40;16.67;;;21.30;17.00;;;;;;5068478;28;20897;-81
2023/07/28 10:56:30;;;;;;;18.80;17.87;;;21.30;1.00;;;;;;5069372;28;20493;-80
2023/07/28 10:58:59;;;;;;;17.30;16.60;;;21.40;1.00;;;;;;5067387;28;20454;-81
2023/07/28 11:01:54;;;;;;;17.33;16.63;;;21.40;1.00;;;;;;5191455;22;20673;-81
2023/07/28 11:23:31;;;;;;;17.30;16.70;;;21.60;1.00;;;;;;4992722;28;20503;-81
2023/07/28 11:26:00;;;;;;;17.77;16.77;;;21.60;1.00;;;;;;4993637;28;20447;-80
2023/07/28 11:28:29;;;;;;;17.80;17.10;;;21.70;1.00;;;;;;4995347;28;21277;-80
2023/07/28 11:31:33;;;;;;;17.20;16.43;;;21.70;1.00;;;;;;4992966;28;20549;-81
2023/07/28 11:34:48;;;;;;;18.13;17.40;;;21.70;1.00;;;;;;4991609;28;20481;-80
2023/07/28 11:37:47;;;;;;;18.03;17.20;;;21.70;1.00;;;;;;4960678;28;20466;-80
2023/07/28 11:43:56;;;;;;;17.33;16.73;;;21.60;1.00;;;;;;4929590;29;20505;-80
2023/07/28 11:46:36;;;;;;;17.60;16.90;;;21.70;1.00;;;;;;4969039;28;20471;-80
2023/07/28 11:49:12;;;;;;;17.10;16.50;;;21.60;1.00;;;;;;4990466;28;20465;-80
2023/07/28 11:51:43;;;;;;;17.23;16.50;;;21.60;1.00;;;;;;4986184;28;21033;-80
2023/07/28 11:54:15;;;;;;;17.10;16.50;;;21.50;1.00;;;;;;4989102;28;20511;-79
2023/07/28 11:56:47;;;;;;;17.90;17.30;;;21.40;99.90;;;;;;4996937;28;20500;-79
2023/07/28 11:59:22;;;;;;;17.30;16.60;;;21.40;99.90;;;;;;4995958;28;20463;-81
2023/07/28 12:01:59;;;;;;;17.30;16.50;;;21.40;99.90;;;;;;4993247;28;20477;-81
2023/07/28 12:04:34;;;;;;;17.57;16.87;;;21.40;99.90;;;;;;4999846;28;20848;-81
2023/07/28 12:11:38;;;;;;;17.43;16.73;;;21.40;99.90;;;;;;4913129;28;20470;-82
2023/07/28 12:15:04;;;;;;;17.70;16.90;;;21.50;99.90;;;;;;4948272;28;20492;-81
2023/07/28 12:18:08;;;;;;;17.23;16.63;;;21.50;1.00;;;;;;4993546;28;20556;-80
2023/07/28 12:20:46;;;;;;;18.07;17.20;;;21.60;99.90;;;;;;4997076;28;20460;-81
2023/07/28 12:23:17;;;;;;;17.73;17.07;;;21.60;99.90;;;;;;4998078;28;20994;-80
2023/07/28 12:25:55;;;;;;;17.13;16.40;;;21.60;99.90;;;;;;4995799;28;21022;-80
2023/07/28 12:28:28;;;;;;;18.30;17.23;;;21.70;99.90;;;;;;4993186;28;20496;-80
2023/07/28 12:30:59;;;;;;;17.83;17.13;;;21.70;99.90;;;;;;4999440;28;20456;-80
2023/07/28 12:33:28;;;;;;;17.97;17.13;;;21.80;99.90;;;;;;4998414;28;20478;-80
2023/07/28 12:36:00;;;;;;;17.10;16.50;;;21.80;99.90;;;;;;5000911;28;20460;-81
2023/07/28 12:38:50;;;;;;;17.93;17.13;;;21.80;99.90;;;;;;4998533;28;20457;-81
2023/07/28 12:41:22;;;;;;;18.07;17.37;;;21.80;96.70;;;;;;4978709;28;20581;-81
2023/07/28 12:44:08;;;;;;;17.67;17.07;;;21.80;99.90;;;;;;4999624;28;21055;-82
2023/07/28 12:46:41;;;;;;;17.83;17.20;;;21.80;99.90;;;;;;4992442;28;20821;-83
2023/07/28 12:49:19;;;;;;;17.80;17.10;;;21.80;99.90;;;;;;4977161;28;20652;-83
2023/07/28 12:51:50;;;;;;;17.60;17.00;;;21.80;99.90;;;;;;4997916;28;20499;-83
2023/07/28 12:54:21;;;;;;;18.20;17.30;;;21.80;99.90;;;;;;4979878;28;20476;-83
2023/07/28 12:56:50;;;;;;;17.10;16.47;;;21.80;82.90;;;;;;4995824;28;20462;-80
2023/07/28 12:59:41;;;;;;;16.70;16.10;;;21.70;54.90;;;;;;4995171;28;20449;-80
2023/07/28 13:02:12;;;;;;;17.33;16.73;;;21.80;99.90;;;;;;4965522;28;20848;-82
2023/07/28 13:04:44;;;;;;;17.90;17.13;;;21.80;99.90;;;;;;4986661;28;20448;-83
2023/07/28 13:07:13;;;;;;;17.60;16.90;;;21.80;99.90;;;;;;4994135;28;20508;-82
2023/07/28 13:09:45;;;;;;;17.30;16.70;;;21.80;99.90;;;;;;4997051;28;20472;-80
2023/07/28 13:12:17;;;;;;;17.17;16.57;;;21.80;99.90;;;;;;5028356;23;20567;-81
2023/07/28 13:15:36;;;;;;;17.60;16.90;;;21.80;1.00;;;;;;5020438;28;20522;-81
2023/07/28 13:22:38;;;;;;;17.43;16.70;;;21.80;99.90;;;;;;5022262;28;21055;-81
2023/07/28 13:25:08;;;;;;;17.83;17.13;;;21.60;99.90;;;;;;5017195;28;20756;-81
2023/07/28 13:27:36;;;;;;;18.03;17.33;;;21.60;23.70;;;;;;5019806;28;20465;-81
2023/07/28 13:30:05;;;;;;;18.37;17.67;;;21.60;99.90;;;;;;5002377;28;20854;-81
2023/07/28 13:32:34;;;;;;;17.60;16.90;;;21.50;99.90;;;;;;5019264;28;20475;-82
2023/07/28 13:35:51;;;;;;;18.87;17.77;;;21.50;1.00;;;;;;5004486;28;20578;-81
2023/07/28 13:41:57;;;;;;;18.60;17.43;;;21.40;99.90;;;;;;4956737;28;20507;-81
2023/07/28 13:45:11;;;;;;;18.73;17.57;;;21.30;25.90;;;;;;5020660;28;20542;-82